Météo Nord-Pas-de-Calais   La météo au plus près de chez vous

Station météorologique

Observations météo à Embrun (05046)

05046001 873 m Dernier relevé à 23:00
17.8°C
Humidité 46 % Vent 0 km/h

Journée consultée

Mardi 1 Septembre 2026

Synthèse de la journée

Périodes de référence en UTC

Température maximale

28.8°C

à 15:42

06h 06h

Température minimale

11.8°C

à 08:00

18h 18h

Rafale maximale

34 km/h

à 15:54

00h 00h

Précipitations

0 mm

Cumul quotidien

06h 06h

Ensoleillement

10h 44 mins

Durée quotidienne

00h 00h

Graphiques de la journée

Heure locale Réduire

Données détaillées

Relevés météo

Pas de 6 minutes Afficher les relevés infra-horaires
Relevés météo détaillés à Embrun pour le Mardi 1 Septembre 2026
Heure Température °C Point de rosée °C Humidité % Vent moyen (raf.), km/h Précipitations mm Température à 10 cm °C Température à 20 cm °C Température à 50 cm °C Température à 100 cm °C Hauteur neige cm Ensoleillement min Rayonnement global W/m²
23:00 17.8 °C 7.2 °C 50 % 8 km/h (12 km/h) 0 mm0 mm 21.8 °C 21.4 °C 19.9 °C 19.5 °C 0 cm 0 min 0 W/m²
22:54 18.1 °C 7.2 °C 49 % 9 km/h (13 km/h) 0 mm0 mm 21.8 °C 21.4 °C 19.9 °C 19.5 °C 0 cm 0 min 0 W/m²
22:48 17.7 °C 7.1 °C 50 % 9 km/h (13 km/h) 0 mm0 mm 21.9 °C 21.4 °C 19.9 °C 19.5 °C 0 cm 0 min 0 W/m²
22:42 17.6 °C 7.3 °C 51 % 7 km/h (12 km/h) 0 mm0 mm 21.9 °C 21.4 °C 19.9 °C 19.5 °C 0 cm 0 min 0 W/m²
22:36 17.5 °C 7.2 °C 51 % 4 km/h (9 km/h) 0 mm0 mm 21.9 °C 21.4 °C 19.9 °C 19.5 °C 0 cm 0 min 0 W/m²
22:30 17.4 °C 7.4 °C 52 % 4 km/h (6 km/h) 0 mm0 mm 22 °C 21.4 °C 19.9 °C 19.5 °C 0 cm 0 min 0 W/m²
22:24 18 °C 7.4 °C 50 % 2 km/h (4 km/h) 0 mm0 mm 22 °C 21.4 °C 19.9 °C 19.5 °C 0 cm 0 min 0 W/m²
22:18 18.3 °C 7.1 °C 48 % 0 km/h (4 km/h) 0 mm0 mm 22 °C 21.4 °C 19.9 °C 19.5 °C 0 cm 0 min 0 W/m²
22:12 18.5 °C 7 °C 47 % 0 km/h (4 km/h) 0 mm0 mm 22.1 °C 21.4 °C 19.9 °C 19.5 °C 0 cm 0 min 0 W/m²
22:06 18.6 °C 7.1 °C 47 % 0 km/h (4 km/h) 0 mm0 mm 22.1 °C 21.4 °C 19.9 °C 19.5 °C 0 cm 0 min 0 W/m²
22:00 18.9 °C 7 °C 46 % 0 km/h (5 km/h) 0 mm0 mm 22.1 °C 21.4 °C 19.9 °C 19.5 °C 0 cm 0 min 0 W/m²
21:54 19.2 °C 7.3 °C 46 % 0 km/h (4 km/h) 0 mm0 mm 22.1 °C 21.4 °C 19.9 °C 19.5 °C 0 cm 0 min 0 W/m²
21:48 19.4 °C 7.2 °C 45 % 2 km/h (5 km/h) 0 mm0 mm 22.2 °C 21.4 °C 19.9 °C 19.5 °C 0 cm 0 min 0 W/m²
21:42 19.6 °C 6.7 °C 43 % 2 km/h (6 km/h) 0 mm0 mm 22.2 °C 21.4 °C 19.8 °C 19.5 °C 0 cm 0 min 0 W/m²
21:36 19.9 °C 5.9 °C 40 % 2 km/h (6 km/h) 0 mm0 mm 22.2 °C 21.4 °C 19.9 °C 19.5 °C 0 cm 0 min 0 W/m²
21:30 19.9 °C 6.9 °C 43 % 3 km/h (8 km/h) 0 mm0 mm 22.3 °C 21.4 °C 19.9 °C 19.5 °C 0 cm 0 min 0 W/m²
21:24 20.2 °C 6.9 °C 42 % 2 km/h (8 km/h) 0 mm0 mm 22.3 °C 21.4 °C 19.9 °C 19.5 °C 0 cm 0 min 0 W/m²
21:18 20.5 °C 7.1 °C 42 % 0 km/h (7 km/h) 0 mm0 mm 22.3 °C 21.4 °C 19.9 °C 19.5 °C 0 cm 0 min 0 W/m²
21:12 20.4 °C 6.3 °C 40 % 2 km/h (9 km/h) 0 mm0 mm 22.3 °C 21.4 °C 19.8 °C 19.5 °C 0 cm 0 min 0 W/m²
21:06 20 °C 8.3 °C 47 % 2 km/h (6 km/h) 0 mm0 mm 22.4 °C 21.3 °C 19.8 °C 19.5 °C 0 cm 0 min 0 W/m²
21:00 20.2 °C 7.9 °C 45 % 2 km/h (6 km/h) 0 mm0 mm 22.4 °C 21.3 °C 19.8 °C 19.5 °C 0 cm 0 min 0 W/m²
20:54 20.6 °C 7.9 °C 44 % 4 km/h (8 km/h) 0 mm0 mm 22.4 °C 21.3 °C 19.8 °C 19.5 °C 0 cm 0 min 0 W/m²
20:48 20.5 °C 7.8 °C 44 % 4 km/h (8 km/h) 0 mm0 mm 22.4 °C 21.3 °C 19.8 °C 19.5 °C 0 cm 0 min 0 W/m²
20:42 20.7 °C 8.3 °C 45 % 3 km/h (5 km/h) 0 mm0 mm 22.4 °C 21.3 °C 19.9 °C 19.5 °C 0 cm 0 min 0 W/m²
20:36 20.9 °C 8.2 °C 44 % 2 km/h (4 km/h) 0 mm0 mm 22.5 °C 21.3 °C 19.8 °C 19.5 °C 0 cm 0 min 0 W/m²
20:30 21.2 °C 8.1 °C 43 % 2 km/h (4 km/h) 0 mm0 mm 22.5 °C 21.3 °C 19.8 °C 19.5 °C 0 cm 0 min 0 W/m²
20:24 21.4 °C 8 °C 42 % 3 km/h (5 km/h) 0 mm0 mm 22.5 °C 21.2 °C 19.9 °C 19.5 °C 0 cm 0 min 0 W/m²
20:18 21.9 °C 8 °C 41 % 3 km/h (8 km/h) 0 mm0 mm 22.5 °C 21.2 °C 19.9 °C 19.5 °C 0 cm 0 min 0 W/m²
20:12 22.4 °C 8.5 °C 41 % 4 km/h (8 km/h) 0 mm0 mm 22.5 °C 21.2 °C 19.8 °C 19.5 °C 0 cm 0 min 0 W/m²
20:06 23 °C 7.9 °C 38 % 6 km/h (15 km/h) 0 mm0 mm 22.5 °C 21.2 °C 19.8 °C 19.5 °C 0 cm 0 min 0 W/m²
20:00 23.6 °C 7.2 °C 35 % 10 km/h (15 km/h) 0 mm0 mm 22.5 °C 21.2 °C 19.8 °C 19.5 °C 0 cm 0 min 0 W/m²
19:54 23.9 °C 7.5 °C 35 % 12 km/h (18 km/h) 0 mm0 mm 22.6 °C 21.2 °C 19.8 °C 19.5 °C 0 cm 0 min 0 W/m²
19:48 24 °C 8 °C 36 % 12 km/h (18 km/h) 0 mm0 mm 22.6 °C 21.1 °C 19.9 °C 19.5 °C 0 cm 0 min 0 W/m²
19:42 24 °C 8 °C 36 % 8 km/h (15 km/h) 0 mm0 mm 22.6 °C 21.1 °C 19.8 °C 19.5 °C 0 cm 0 min 0 W/m²
19:36 24.1 °C 8.9 °C 38 % 7 km/h (15 km/h) 0 mm0 mm 22.6 °C 21.1 °C 19.9 °C 19.5 °C 0 cm 0 min 3.8 W/m²
19:30 24.7 °C 8.6 °C 36 % 12 km/h (18 km/h) 0 mm0 mm 22.6 °C 21.1 °C 19.9 °C 19.5 °C 0 cm 0 min 5.1 W/m²
19:24 25.1 °C 8.1 °C 34 % 14 km/h (19 km/h) 0 mm0 mm 22.6 °C 21 °C 19.8 °C 19.5 °C 0 cm 0 min 6 W/m²
19:18 25.3 °C 8.3 °C 34 % 13 km/h (19 km/h) 0 mm0 mm 22.6 °C 21 °C 19.9 °C 19.5 °C 0 cm 0 min 11.7 W/m²
19:12 25.7 °C 8.2 °C 33 % 13 km/h (22 km/h) 0 mm0 mm 22.6 °C 21 °C 19.9 °C 19.5 °C 0 cm 5 min 32.8 W/m²
19:06 25.9 °C 8.4 °C 33 % 14 km/h (22 km/h) 0 mm0 mm 22.6 °C 20.9 °C 19.9 °C 19.5 °C 0 cm 6 min 43.3 W/m²
19:00 26.2 °C 8.2 °C 32 % 15 km/h (24 km/h) 0 mm0 mm 22.5 °C 20.9 °C 19.9 °C 19.5 °C 0 cm 6 min 54 W/m²
18:54 26.4 °C 7.4 °C 30 % 17 km/h (27 km/h) 0 mm0 mm 22.5 °C 20.9 °C 19.9 °C 19.5 °C 0 cm 6 min 59.8 W/m²
18:48 26.4 °C 7.9 °C 31 % 17 km/h (27 km/h) 0 mm0 mm 22.5 °C 20.9 °C 19.9 °C 19.5 °C 0 cm 6 min 66.4 W/m²
18:42 26.5 °C 8 °C 31 % 17 km/h (26 km/h) 0 mm0 mm 22.5 °C 20.8 °C 19.9 °C 19.5 °C 0 cm 6 min 69.5 W/m²
18:36 26.7 °C 7.7 °C 30 % 18 km/h (26 km/h) 0 mm0 mm 22.5 °C 20.8 °C 19.9 °C 19.5 °C 0 cm 6 min 74.5 W/m²
18:30 26.8 °C 7.3 °C 29 % 19 km/h (27 km/h) 0 mm0 mm 22.5 °C 20.8 °C 19.9 °C 19.5 °C 0 cm 6 min 79.4 W/m²
18:24 27 °C 7.9 °C 30 % 19 km/h (27 km/h) 0 mm0 mm 22.5 °C 20.8 °C 19.9 °C 19.5 °C 0 cm 6 min 88.4 W/m²
18:18 27.4 °C 7.3 °C 28 % 17 km/h (31 km/h) 0 mm0 mm 22.4 °C 20.7 °C 19.9 °C 19.5 °C 0 cm 6 min 95.1 W/m²
18:12 27.6 °C 6.9 °C 27 % 14 km/h (31 km/h) 0 mm0 mm 22.4 °C 20.7 °C 19.9 °C 19.5 °C 0 cm 6 min 101.9 W/m²
18:06 27.9 °C 6 °C 25 % 13 km/h (23 km/h) 0 mm0 mm 22.4 °C 20.7 °C 19.9 °C 19.5 °C 0 cm 6 min 108.2 W/m²
18:00 28 °C 6.1 °C 25 % 14 km/h (27 km/h) 0 mm0 mm 22.3 °C 20.6 °C 19.9 °C 19.5 °C 0 cm 6 min 114.6 W/m²
17:54 28.2 °C 4.5 °C 22 % 13 km/h (27 km/h) 0 mm0 mm 22.3 °C 20.6 °C 19.9 °C 19.5 °C 0 cm 6 min 120.5 W/m²
17:48 28.2 °C 4.5 °C 22 % 14 km/h (31 km/h) 0 mm0 mm 22.3 °C 20.6 °C 19.9 °C 19.5 °C 0 cm 6 min 126.9 W/m²
17:42 28.3 °C 2.5 °C 19 % 16 km/h (31 km/h) 0 mm0 mm 22.2 °C 20.5 °C 19.9 °C 19.5 °C 0 cm 6 min 132.6 W/m²
17:36 28.4 °C 3.3 °C 20 % 14 km/h (28 km/h) 0 mm0 mm 22.2 °C 20.5 °C 19.9 °C 19.5 °C 0 cm 6 min 138.3 W/m²
17:30 28.2 °C 1.6 °C 18 % 16 km/h (28 km/h) 0 mm0 mm 22.1 °C 20.5 °C 19.9 °C 19.5 °C 0 cm 6 min 143.9 W/m²
17:24 28 °C 4.9 °C 23 % 17 km/h (26 km/h) 0 mm0 mm 22.1 °C 20.4 °C 19.9 °C 19.5 °C 0 cm 6 min 148.9 W/m²
17:18 28.2 °C 3.1 °C 20 % 16 km/h (26 km/h) 0 mm0 mm 22.1 °C 20.4 °C 19.9 °C 19.5 °C 0 cm 6 min 154 W/m²
17:12 28.3 °C 3.2 °C 20 % 12 km/h (22 km/h) 0 mm0 mm 22 °C 20.4 °C 19.9 °C 19.5 °C 0 cm 6 min 159.2 W/m²
17:06 28.3 °C 3.9 °C 21 % 14 km/h (26 km/h) 0 mm0 mm 21.9 °C 20.3 °C 19.9 °C 19.5 °C 0 cm 6 min 164.5 W/m²
17:00 28.3 °C 3.9 °C 21 % 15 km/h (26 km/h) 0 mm0 mm 21.9 °C 20.3 °C 19.9 °C 19.5 °C 0 cm 6 min 169.1 W/m²
16:54 28.4 °C 5.3 °C 23 % 14 km/h (23 km/h) 0 mm0 mm 21.8 °C 20.3 °C 19.9 °C 19.5 °C 0 cm 6 min 174.1 W/m²
16:48 28.3 °C 5.2 °C 23 % 14 km/h (22 km/h) 0 mm0 mm 21.8 °C 20.2 °C 19.9 °C 19.5 °C 0 cm 6 min 179.3 W/m²
16:42 28.4 °C 5.3 °C 23 % 15 km/h (30 km/h) 0 mm0 mm 21.7 °C 20.2 °C 19.9 °C 19.5 °C 0 cm 6 min 185.1 W/m²
16:36 28.4 °C 4 °C 21 % 13 km/h (30 km/h) 0 mm0 mm 21.6 °C 20.2 °C 19.9 °C 19.5 °C 0 cm 6 min 190.1 W/m²
16:30 28.6 °C 5.4 °C 23 % 14 km/h (28 km/h) 0 mm0 mm 21.6 °C 20.1 °C 19.9 °C 19.5 °C 0 cm 6 min 195.6 W/m²
16:24 28.6 °C 4.8 °C 22 % 15 km/h (29 km/h) 0 mm0 mm 21.5 °C 20.1 °C 19.9 °C 19.5 °C 0 cm 6 min 200.4 W/m²
16:18 28.3 °C 0.1 °C 16 % 17 km/h (29 km/h) 0 mm0 mm 21.4 °C 20.1 °C 19.9 °C 19.5 °C 0 cm 6 min 205.4 W/m²
16:12 28.5 °C 2.6 °C 19 % 15 km/h (27 km/h) 0 mm0 mm 21.4 °C 20 °C 19.9 °C 19.5 °C 0 cm 6 min 210.1 W/m²
16:06 28.6 °C -0.6 °C 15 % 15 km/h (28 km/h) 0 mm0 mm 21.3 °C 20 °C 19.9 °C 19.5 °C 0 cm 6 min 214.7 W/m²
16:00 28.5 °C 4.7 °C 22 % 16 km/h (31 km/h) 0 mm0 mm 21.2 °C 20 °C 19.9 °C 19.5 °C 0 cm 6 min 218.9 W/m²
15:54 28.7 °C -1.4 °C 14 % 15 km/h (34 km/h) 0 mm0 mm 21.2 °C 19.9 °C 19.9 °C 19.5 °C 0 cm 6 min 223.8 W/m²
15:48 28.7 °C 1.2 °C 17 % 15 km/h (30 km/h) 0 mm0 mm 21.1 °C 19.9 °C 19.9 °C 19.5 °C 0 cm 6 min 227.6 W/m²
15:42 28.8 °C 2.1 °C 18 % 13 km/h (26 km/h) 0 mm0 mm 21 °C 19.9 °C 19.9 °C 19.5 °C 0 cm 6 min 231.6 W/m²
15:36 28.7 °C 4.2 °C 21 % 13 km/h (30 km/h) 0 mm0 mm 20.9 °C 19.9 °C 20 °C 19.5 °C 0 cm 6 min 234.4 W/m²
15:30 28.3 °C 3.9 °C 21 % 18 km/h (33 km/h) 0 mm0 mm 20.8 °C 19.8 °C 20 °C 19.5 °C 0 cm 6 min 237.8 W/m²
15:24 28.1 °C 5 °C 23 % 18 km/h (33 km/h) 0 mm0 mm 20.8 °C 19.8 °C 20 °C 19.5 °C 0 cm 6 min 239.8 W/m²
15:18 28.1 °C 6.8 °C 26 % 15 km/h (27 km/h) 0 mm0 mm 20.7 °C 19.8 °C 20 °C 19.5 °C 0 cm 6 min 242.6 W/m²
15:12 28 °C 6.1 °C 25 % 17 km/h (33 km/h) 0 mm0 mm 20.6 °C 19.8 °C 20 °C 19.5 °C 0 cm 6 min 245.6 W/m²
15:06 28 °C 7.3 °C 27 % 17 km/h (31 km/h) 0 mm0 mm 20.5 °C 19.7 °C 20 °C 19.5 °C 0 cm 6 min 248.5 W/m²
15:00 27.6 °C 8 °C 29 % 16 km/h (28 km/h) 0 mm0 mm 20.4 °C 19.7 °C 20 °C 19.5 °C 0 cm 6 min 250.9 W/m²
14:54 27.6 °C 8.5 °C 30 % 17 km/h (27 km/h) 0 mm0 mm 20.4 °C 19.7 °C 20 °C 19.5 °C 0 cm 6 min 252.8 W/m²
14:48 27.7 °C 8 °C 29 % 14 km/h (24 km/h) 0 mm0 mm 20.3 °C 19.7 °C 20 °C 19.5 °C 0 cm 6 min 255.2 W/m²
14:42 28.2 °C 9.9 °C 32 % 12 km/h (24 km/h) 0 mm0 mm 20.2 °C 19.6 °C 20 °C 19.5 °C 0 cm 6 min 256.1 W/m²
14:36 27.8 °C 9.1 °C 31 % 13 km/h (24 km/h) 0 mm0 mm 20.1 °C 19.6 °C 20 °C 19.5 °C 0 cm 6 min 258.2 W/m²
14:30 27.9 °C 10.1 °C 33 % 13 km/h (24 km/h) 0 mm0 mm 20 °C 19.6 °C 20 °C 19.5 °C 0 cm 6 min 259.7 W/m²
14:24 27.6 °C 8.9 °C 31 % 15 km/h (25 km/h) 0 mm0 mm 19.9 °C 19.6 °C 20 °C 19.5 °C 0 cm 6 min 260.3 W/m²
14:18 27.3 °C 8.2 °C 30 % 16 km/h (27 km/h) 0 mm0 mm 19.9 °C 19.6 °C 20 °C 19.5 °C 0 cm 6 min 261.9 W/m²
14:12 27.2 °C 6.6 °C 27 % 14 km/h (27 km/h) 0 mm0 mm 19.8 °C 19.6 °C 20 °C 19.5 °C 0 cm 6 min 263.8 W/m²
14:06 26.7 °C 9.1 °C 33 % 13 km/h (24 km/h) 0 mm0 mm 19.7 °C 19.5 °C 20 °C 19.5 °C 0 cm 6 min 264.6 W/m²
14:00 25.8 °C 7.8 °C 32 % 12 km/h (22 km/h) 0 mm0 mm 19.6 °C 19.5 °C 20 °C 19.5 °C 0 cm 6 min 265.2 W/m²
13:54 26.4 °C 8.4 °C 32 % 9 km/h (20 km/h) 0 mm0 mm 19.6 °C 19.5 °C 20 °C 19.5 °C 0 cm 6 min 266.1 W/m²
13:48 25.7 °C 8.7 °C 34 % 11 km/h (23 km/h) 0 mm0 mm 19.5 °C 19.5 °C 20 °C 19.5 °C 0 cm 6 min 266.5 W/m²
13:42 25.1 °C 7.2 °C 32 % 11 km/h (23 km/h) 0 mm0 mm 19.4 °C 19.5 °C 20 °C 19.5 °C 0 cm 6 min 267.1 W/m²
13:36 25.3 °C 5.5 °C 28 % 9 km/h (17 km/h) 0 mm0 mm 19.3 °C 19.5 °C 20 °C 19.5 °C 0 cm 6 min 267.8 W/m²
13:30 25.3 °C 7.9 °C 33 % 8 km/h (15 km/h) 0 mm0 mm 19.3 °C 19.5 °C 20 °C 19.5 °C 0 cm 6 min 268 W/m²
13:24 24.9 °C 9.6 °C 38 % 8 km/h (15 km/h) 0 mm0 mm 19.2 °C 19.5 °C 20 °C 19.5 °C 0 cm 6 min 268.1 W/m²
13:18 24.2 °C 8.6 °C 37 % 8 km/h (14 km/h) 0 mm0 mm 19.1 °C 19.5 °C 20 °C 19.5 °C 0 cm 6 min 267.5 W/m²
13:12 24.1 °C 8.5 °C 37 % 9 km/h (14 km/h) 0 mm0 mm 19.1 °C 19.5 °C 20 °C 19.5 °C 0 cm 6 min 266.6 W/m²
13:06 23.9 °C 8.3 °C 37 % 9 km/h (16 km/h) 0 mm0 mm 19 °C 19.5 °C 20 °C 19.5 °C 0 cm 6 min 266 W/m²
13:00 24.1 °C 8.9 °C 38 % 9 km/h (16 km/h) 0 mm0 mm 18.9 °C 19.5 °C 20.1 °C 19.5 °C 0 cm 6 min 265.1 W/m²
12:54 24 °C 8.8 °C 38 % 9 km/h (15 km/h) 0 mm0 mm 18.9 °C 19.5 °C 20 °C 19.5 °C 0 cm 6 min 263.8 W/m²
12:48 24.3 °C 9.8 °C 40 % 9 km/h (15 km/h) 0 mm0 mm 18.8 °C 19.5 °C 20 °C 19.5 °C 0 cm 6 min 262 W/m²
12:42 24.3 °C 9.5 °C 39 % 9 km/h (15 km/h) 0 mm0 mm 18.7 °C 19.5 °C 20.1 °C 19.5 °C 0 cm 6 min 260.1 W/m²
12:36 24.7 °C 10.2 °C 40 % 8 km/h (14 km/h) 0 mm0 mm 18.7 °C 19.5 °C 20.1 °C 19.5 °C 0 cm 6 min 258.8 W/m²
12:30 25.3 °C 11.5 °C 42 % 8 km/h (13 km/h) 0 mm0 mm 18.6 °C 19.5 °C 20 °C 19.5 °C 0 cm 6 min 257.1 W/m²
12:24 25.3 °C 11.5 °C 42 % 6 km/h (13 km/h) 0 mm0 mm 18.6 °C 19.5 °C 20.1 °C 19.5 °C 0 cm 6 min 255.2 W/m²
12:18 24.9 °C 11.5 °C 43 % 5 km/h (13 km/h) 0 mm0 mm 18.5 °C 19.5 °C 20.1 °C 19.5 °C 0 cm 6 min 252.9 W/m²
12:12 24.2 °C 9.7 °C 40 % 5 km/h (13 km/h) 0 mm0 mm 18.5 °C 19.5 °C 20.1 °C 19.5 °C 0 cm 6 min 250.1 W/m²
12:06 24.1 °C 9.3 °C 39 % 5 km/h (13 km/h) 0 mm0 mm 18.5 °C 19.5 °C 20.1 °C 19.5 °C 0 cm 6 min 247.2 W/m²
12:00 24.5 °C 9.6 °C 39 % 5 km/h (11 km/h) 0 mm0 mm 18.4 °C 19.5 °C 20.1 °C 19.5 °C 0 cm 6 min 244 W/m²
11:54 24.2 °C 9.7 °C 40 % 3 km/h (9 km/h) 0 mm0 mm 18.4 °C 19.5 °C 20.1 °C 19.5 °C 0 cm 6 min 241 W/m²
11:48 24 °C 9.2 °C 39 % 4 km/h (11 km/h) 0 mm0 mm 18.3 °C 19.6 °C 20.1 °C 19.5 °C 0 cm 6 min 237.7 W/m²
11:42 23.4 °C 10.4 °C 44 % 6 km/h (12 km/h) 0 mm0 mm 18.3 °C 19.6 °C 20.1 °C 19.5 °C 0 cm 6 min 234.1 W/m²
11:36 22.7 °C 8 °C 39 % 5 km/h (12 km/h) 0 mm0 mm 18.3 °C 19.6 °C 20.1 °C 19.5 °C 0 cm 6 min 230.4 W/m²
11:30 22.8 °C 7.7 °C 38 % 5 km/h (10 km/h) 0 mm0 mm 18.3 °C 19.6 °C 20.1 °C 19.5 °C 0 cm 6 min 226.5 W/m²
11:24 23 °C 8.7 °C 40 % 6 km/h (12 km/h) 0 mm0 mm 18.2 °C 19.6 °C 20.1 °C 19.5 °C 0 cm 6 min 222.6 W/m²
11:18 22.5 °C 8.2 °C 40 % 7 km/h (12 km/h) 0 mm0 mm 18.2 °C 19.6 °C 20.1 °C 19.5 °C 0 cm 6 min 218.8 W/m²
11:12 22.1 °C 8.6 °C 42 % 9 km/h (14 km/h) 0 mm0 mm 18.2 °C 19.7 °C 20.1 °C 19.5 °C 0 cm 6 min 214.6 W/m²
11:06 21.7 °C 8.2 °C 42 % 10 km/h (14 km/h) 0 mm0 mm 18.2 °C 19.7 °C 20.1 °C 19.5 °C 0 cm 6 min 209.6 W/m²
11:00 21.8 °C 9.3 °C 45 % 10 km/h (17 km/h) 0 mm0 mm 18.2 °C 19.7 °C 20.1 °C 19.5 °C 0 cm 6 min 205.1 W/m²
10:54 21.2 °C 8.1 °C 43 % 10 km/h (18 km/h) 0 mm0 mm 18.2 °C 19.7 °C 20.1 °C 19.5 °C 0 cm 6 min 200.4 W/m²
10:48 20.9 °C 9.2 °C 47 % 9 km/h (18 km/h) 0 mm0 mm 18.2 °C 19.7 °C 20.1 °C 19.5 °C 0 cm 6 min 196.8 W/m²
10:42 20.7 °C 7.7 °C 43 % 9 km/h (17 km/h) 0 mm0 mm 18.2 °C 19.7 °C 20.1 °C 19.5 °C 0 cm 6 min 192.4 W/m²
10:36 20.8 °C 9.1 °C 47 % 8 km/h (17 km/h) 0 mm0 mm 18.2 °C 19.7 °C 20.1 °C 19.5 °C 0 cm 6 min 187.4 W/m²
10:30 20.3 °C 8.6 °C 47 % 9 km/h (16 km/h) 0 mm0 mm 18.2 °C 19.8 °C 20.1 °C 19.5 °C 0 cm 6 min 183.2 W/m²
10:24 20.1 °C 9.6 °C 51 % 8 km/h (16 km/h) 0 mm0 mm 18.3 °C 19.8 °C 20.1 °C 19.5 °C 0 cm 6 min 178.4 W/m²
10:18 19.8 °C 7.8 °C 46 % 9 km/h (19 km/h) 0 mm0 mm 18.3 °C 19.8 °C 20.1 °C 19.5 °C 0 cm 6 min 175.4 W/m²
10:12 19.5 °C 7.6 °C 46 % 9 km/h (19 km/h) 0 mm0 mm 18.3 °C 19.8 °C 20.1 °C 19.5 °C 0 cm 6 min 171.6 W/m²
10:06 19.3 °C 8.3 °C 49 % 8 km/h (17 km/h) 0 mm0 mm 18.3 °C 19.9 °C 20.1 °C 19.5 °C 0 cm 6 min 166.3 W/m²
10:00 18.9 °C 8.2 °C 50 % 8 km/h (16 km/h) 0 mm0 mm 18.3 °C 19.9 °C 20.1 °C 19.5 °C 0 cm 6 min 160.5 W/m²
09:54 18.7 °C 8.6 °C 52 % 13 km/h (23 km/h) 0 mm0 mm 18.3 °C 19.9 °C 20.1 °C 19.5 °C 0 cm 6 min 155.3 W/m²
09:48 17.9 °C 7.9 °C 52 % 15 km/h (26 km/h) 0 mm0 mm 18.4 °C 19.9 °C 20.1 °C 19.5 °C 0 cm 6 min 147.9 W/m²
09:42 18.1 °C 8.4 °C 53 % 13 km/h (24 km/h) 0 mm0 mm 18.4 °C 19.9 °C 20.1 °C 19.5 °C 0 cm 6 min 141.4 W/m²
09:36 17.9 °C 9.3 °C 57 % 13 km/h (24 km/h) 0 mm0 mm 18.4 °C 20 °C 20.1 °C 19.5 °C 0 cm 6 min 135.5 W/m²
09:30 17.5 °C 8.1 °C 54 % 9 km/h (20 km/h) 0 mm0 mm 18.5 °C 20 °C 20.1 °C 19.5 °C 0 cm 6 min 130.1 W/m²
09:24 17.4 °C 8.8 °C 57 % 9 km/h (18 km/h) 0 mm0 mm 18.5 °C 20 °C 20.1 °C 19.5 °C 0 cm 6 min 124.6 W/m²
09:18 16.8 °C 7.7 °C 55 % 14 km/h (23 km/h) 0 mm0 mm 18.5 °C 20 °C 20.1 °C 19.5 °C 0 cm 6 min 119.6 W/m²
09:12 16.3 °C 8 °C 58 % 14 km/h (23 km/h) 0 mm0 mm 18.5 °C 20 °C 20.1 °C 19.5 °C 0 cm 6 min 114.3 W/m²
09:06 16.3 °C 8.3 °C 59 % 10 km/h (22 km/h) 0 mm0 mm 18.6 °C 20 °C 20.1 °C 19.5 °C 0 cm 6 min 108.2 W/m²
09:00 15.9 °C 8.1 °C 60 % 13 km/h (22 km/h) 0 mm0 mm 18.6 °C 20.1 °C 20.2 °C 19.5 °C 0 cm 6 min 102.1 W/m²
08:54 15.2 °C 8 °C 62 % 17 km/h (25 km/h) 0 mm0 mm 18.6 °C 20.1 °C 20.2 °C 19.5 °C 0 cm 6 min 96.2 W/m²
08:48 14.5 °C 8.2 °C 66 % 14 km/h (25 km/h) 0 mm0 mm 18.7 °C 20.1 °C 20.1 °C 19.5 °C 0 cm 6 min 90.2 W/m²
08:42 13.9 °C 8.1 °C 68 % 11 km/h (18 km/h) 0 mm0 mm 18.7 °C 20.1 °C 20.2 °C 19.5 °C 0 cm 6 min 83.9 W/m²
08:36 13.8 °C 8 °C 68 % 13 km/h (19 km/h) 0 mm0 mm 18.7 °C 20.2 °C 20.2 °C 19.5 °C 0 cm 6 min 77.8 W/m²
08:30 12.5 °C 7.2 °C 70 % 12 km/h (19 km/h) 0 mm0 mm 18.7 °C 20.2 °C 20.2 °C 19.5 °C 0 cm 3 min 43.9 W/m²
08:24 12.3 °C 7.2 °C 71 % 12 km/h (16 km/h) 0 mm0 mm 18.8 °C 20.2 °C 20.1 °C 19.5 °C 0 cm 0 min 8.8 W/m²
08:18 12.3 °C 7.2 °C 71 % 12 km/h (19 km/h) 0 mm0 mm 18.8 °C 20.2 °C 20.2 °C 19.5 °C 0 cm 0 min 8.2 W/m²
08:12 12.3 °C 7.2 °C 71 % 11 km/h (19 km/h) 0 mm0 mm 18.8 °C 20.3 °C 20.1 °C 19.5 °C 0 cm 0 min 7.6 W/m²
08:06 11.9 °C 7.4 °C 74 % 8 km/h (14 km/h) 0 mm0 mm 18.9 °C 20.3 °C 20.2 °C 19.5 °C 0 cm 0 min 7 W/m²
08:00 11.9 °C 7.2 °C 73 % 8 km/h (14 km/h) 0 mm0 mm 18.9 °C 20.3 °C 20.1 °C 19.5 °C 0 cm 0 min 6.5 W/m²
07:54 12.1 °C 7.2 °C 72 % 9 km/h (15 km/h) 0 mm0 mm 18.9 °C 20.3 °C 20.2 °C 19.5 °C 0 cm 0 min 6 W/m²
07:48 11.9 °C 7.2 °C 73 % 10 km/h (15 km/h) 0 mm0 mm 19 °C 20.3 °C 20.2 °C 19.5 °C 0 cm 0 min 5.2 W/m²
07:42 11.9 °C 7.2 °C 73 % 6 km/h (13 km/h) 0 mm0 mm 19 °C 20.4 °C 20.2 °C 19.5 °C 0 cm 0 min 4.6 W/m²
07:36 12.3 °C 7.2 °C 71 % 6 km/h (11 km/h) 0 mm0 mm 19 °C 20.4 °C 20.2 °C 19.5 °C 0 cm 0 min 4 W/m²
07:30 12.5 °C 7.2 °C 70 % 7 km/h (11 km/h) 0 mm0 mm 19.1 °C 20.4 °C 20.2 °C 19.5 °C 0 cm 0 min 0.6 W/m²
07:24 12.8 °C 7.2 °C 69 % 7 km/h (10 km/h) 0 mm0 mm 19.1 °C 20.4 °C 20.2 °C 19.5 °C 0 cm 0 min 0 W/m²
07:18 12.9 °C 7.1 °C 68 % 10 km/h (18 km/h) 0 mm0 mm 19.1 °C 20.4 °C 20.2 °C 19.5 °C 0 cm 0 min 0 W/m²
07:12 13 °C 7.2 °C 68 % 13 km/h (22 km/h) 0 mm0 mm 19.2 °C 20.5 °C 20.2 °C 19.5 °C 0 cm 0 min 0 W/m²
07:06 12.3 °C 7.4 °C 72 % 11 km/h (22 km/h) 0 mm0 mm 19.2 °C 20.5 °C 20.2 °C 19.5 °C 0 cm 0 min 0 W/m²
07:00 11.9 °C 7.2 °C 73 % 8 km/h (21 km/h) 0 mm0 mm 19.2 °C 20.5 °C 20.2 °C 19.5 °C 0 cm 0 min 0 W/m²
06:54 12 °C 7.1 °C 72 % 8 km/h (12 km/h) 0 mm0 mm 19.3 °C 20.5 °C 20.2 °C 19.5 °C 0 cm 0 min 0 W/m²
06:48 12.6 °C 7.1 °C 69 % 9 km/h (15 km/h) 0 mm0 mm 19.3 °C 20.5 °C 20.2 °C 19.5 °C 0 cm 0 min 0 W/m²
06:42 13 °C 7.2 °C 68 % 10 km/h (15 km/h) 0 mm0 mm 19.3 °C 20.5 °C 20.2 °C 19.5 °C 0 cm 0 min 0 W/m²
06:36 12.7 °C 7.2 °C 69 % 10 km/h (15 km/h) 0 mm0 mm 19.4 °C 20.6 °C 20.2 °C 19.5 °C 0 cm 0 min 0 W/m²
06:30 12.2 °C 7.3 °C 72 % 8 km/h (14 km/h) 0 mm0 mm 19.4 °C 20.6 °C 20.1 °C 19.5 °C 0 cm 0 min 0 W/m²
06:24 12.2 °C 7.3 °C 72 % 6 km/h (9 km/h) 0 mm0 mm 19.4 °C 20.6 °C 20.2 °C 19.5 °C 0 cm 0 min 0 W/m²
06:18 12.3 °C 7.4 °C 72 % 6 km/h (10 km/h) 0 mm0 mm 19.5 °C 20.6 °C 20.2 °C 19.5 °C 0 cm 0 min 0 W/m²
06:12 12.3 °C 7.6 °C 73 % 7 km/h (12 km/h) 0 mm0 mm 19.5 °C 20.7 °C 20.2 °C 19.5 °C 0 cm 0 min 0 W/m²
06:06 12.6 °C 7.5 °C 71 % 8 km/h (12 km/h) 0 mm0 mm 19.5 °C 20.7 °C 20.1 °C 19.5 °C 0 cm 0 min 0 W/m²
06:00 12.6 °C 7.5 °C 71 % 6 km/h (11 km/h) 0 mm0 mm 19.6 °C 20.7 °C 20.2 °C 19.5 °C 0 cm 0 min 0 W/m²
05:54 12.5 °C 7.2 °C 70 % 4 km/h (9 km/h) 0 mm0 mm 19.6 °C 20.7 °C 20.1 °C 19.5 °C 0 cm 0 min 0 W/m²
05:48 12.5 °C 7.6 °C 72 % 3 km/h (8 km/h) 0 mm0 mm 19.6 °C 20.7 °C 20.2 °C 19.5 °C 0 cm 0 min 0 W/m²
05:42 12.7 °C 7.6 °C 71 % 4 km/h (10 km/h) 0 mm0 mm 19.7 °C 20.8 °C 20.2 °C 19.5 °C 0 cm 0 min 0 W/m²
05:36 12.8 °C 7.5 °C 70 % 5 km/h (11 km/h) 0 mm0 mm 19.7 °C 20.8 °C 20.1 °C 19.5 °C 0 cm 0 min 0 W/m²
05:30 12.8 °C 7.7 °C 71 % 8 km/h (15 km/h) 0 mm0 mm 19.7 °C 20.8 °C 20.2 °C 19.5 °C 0 cm 0 min 0 W/m²
05:24 13.2 °C 7.6 °C 69 % 10 km/h (20 km/h) 0 mm0 mm 19.8 °C 20.8 °C 20.2 °C 19.5 °C 0 cm 0 min 0 W/m²
05:18 13.4 °C 8 °C 70 % 10 km/h (20 km/h) 0 mm0 mm 19.8 °C 20.8 °C 20.1 °C 19.5 °C 0 cm 0 min 0 W/m²
05:12 13.4 °C 7.6 °C 68 % 7 km/h (15 km/h) 0 mm0 mm 19.8 °C 20.9 °C 20.1 °C 19.5 °C 0 cm 0 min 0 W/m²
05:06 13.2 °C 7.8 °C 70 % 6 km/h (11 km/h) 0 mm0 mm 19.8 °C 20.9 °C 20.1 °C 19.5 °C 0 cm 0 min 0 W/m²
05:00 13.2 °C 7.8 °C 70 % 8 km/h (14 km/h) 0 mm0 mm 19.9 °C 20.9 °C 20.1 °C 19.5 °C 0 cm 0 min 0 W/m²
04:54 13.2 °C 7.8 °C 70 % 9 km/h (14 km/h) 0 mm0 mm 19.9 °C 20.9 °C 20.1 °C 19.5 °C 0 cm 0 min 0 W/m²
04:48 13.2 °C 8.1 °C 71 % 9 km/h (13 km/h) 0 mm0 mm 20 °C 20.9 °C 20.1 °C 19.5 °C 0 cm 0 min 0 W/m²
04:42 13.4 °C 8 °C 70 % 9 km/h (13 km/h) 0 mm0 mm 20 °C 20.9 °C 20.1 °C 19.5 °C 0 cm 0 min 0 W/m²
04:36 13.4 °C 8 °C 70 % 10 km/h (15 km/h) 0 mm0 mm 20 °C 21 °C 20.1 °C 19.5 °C 0 cm 0 min 0 W/m²
04:30 13.7 °C 8.1 °C 69 % 10 km/h (15 km/h) 0 mm0 mm 20.1 °C 21 °C 20.1 °C 19.5 °C 0 cm 0 min 0 W/m²
04:24 13.6 °C 8.2 °C 70 % 10 km/h (15 km/h) 0 mm0 mm 20.1 °C 21 °C 20.1 °C 19.5 °C 0 cm 0 min 0 W/m²
04:18 13.4 °C 8.2 °C 71 % 9 km/h (15 km/h) 0 mm0 mm 20.1 °C 21 °C 20.1 °C 19.5 °C 0 cm 0 min 0 W/m²
04:12 13.2 °C 8.3 °C 72 % 9 km/h (13 km/h) 0 mm0 mm 20.2 °C 21.1 °C 20.1 °C 19.5 °C 0 cm 0 min 0 W/m²
04:06 13.2 °C 8.5 °C 73 % 9 km/h (13 km/h) 0 mm0 mm 20.2 °C 21.1 °C 20.1 °C 19.5 °C 0 cm 0 min 0 W/m²
04:00 13.2 °C 8.5 °C 73 % 10 km/h (13 km/h) 0 mm0 mm 20.2 °C 21.1 °C 20.1 °C 19.5 °C 0 cm 0 min 0 W/m²
03:54 13.3 °C 8.4 °C 72 % 9 km/h (13 km/h) 0 mm0 mm 20.3 °C 21.1 °C 20.1 °C 19.5 °C 0 cm 0 min 0 W/m²
03:48 13.4 °C 8.5 °C 72 % 10 km/h (15 km/h) 0 mm0 mm 20.3 °C 21.1 °C 20.1 °C 19.5 °C 0 cm 0 min 0 W/m²
03:42 13.7 °C 8.5 °C 71 % 11 km/h (15 km/h) 0 mm0 mm 20.3 °C 21.1 °C 20.1 °C 19.5 °C 0 cm 0 min 0 W/m²
03:36 13.9 °C 8.5 °C 70 % 10 km/h (15 km/h) 0 mm0 mm 20.4 °C 21.2 °C 20.1 °C 19.5 °C 0 cm 0 min 0 W/m²
03:30 14.2 °C 8.4 °C 68 % 11 km/h (16 km/h) 0 mm0 mm 20.4 °C 21.2 °C 20.1 °C 19.5 °C 0 cm 0 min 0 W/m²
03:24 14.1 °C 8.5 °C 69 % 12 km/h (16 km/h) 0 mm0 mm 20.5 °C 21.2 °C 20.1 °C 19.5 °C 0 cm 0 min 0 W/m²
03:18 14.1 °C 8.5 °C 69 % 10 km/h (14 km/h) 0 mm0 mm 20.5 °C 21.2 °C 20.1 °C 19.5 °C 0 cm 0 min 0 W/m²
03:12 14.1 °C 8.5 °C 69 % 10 km/h (14 km/h) 0 mm0 mm 20.5 °C 21.2 °C 20.1 °C 19.5 °C 0 cm 0 min 0 W/m²
03:06 14.4 °C 8.6 °C 68 % 11 km/h (14 km/h) 0 mm0 mm 20.6 °C 21.3 °C 20.1 °C 19.5 °C 0 cm 0 min 0 W/m²
03:00 14.3 °C 8.7 °C 69 % 9 km/h (14 km/h) 0 mm0 mm 20.6 °C 21.3 °C 20.1 °C 19.5 °C 0 cm 0 min 0 W/m²
02:54 14.3 °C 8.7 °C 69 % 8 km/h (12 km/h) 0 mm0 mm 20.6 °C 21.3 °C 20.1 °C 19.5 °C 0 cm 0 min 0 W/m²
02:48 14.4 °C 8.8 °C 69 % 8 km/h (11 km/h) 0 mm0 mm 20.7 °C 21.3 °C 20.1 °C 19.5 °C 0 cm 0 min 0 W/m²
02:42 14.4 °C 8.6 °C 68 % 8 km/h (11 km/h) 0 mm0 mm 20.7 °C 21.3 °C 20.1 °C 19.5 °C 0 cm 0 min 0 W/m²
02:36 14.4 °C 8.6 °C 68 % 9 km/h (13 km/h) 0 mm0 mm 20.7 °C 21.3 °C 20.1 °C 19.5 °C 0 cm 0 min 0 W/m²
02:30 14.6 °C 9 °C 69 % 9 km/h (14 km/h) 0 mm0 mm 20.8 °C 21.3 °C 20.1 °C 19.5 °C 0 cm 0 min 0 W/m²
02:24 14.5 °C 8.7 °C 68 % 8 km/h (12 km/h) 0 mm0 mm 20.8 °C 21.4 °C 20.1 °C 19.5 °C 0 cm 0 min 0 W/m²
02:18 14.3 °C 8.7 °C 69 % 8 km/h (11 km/h) 0 mm0 mm 20.8 °C 21.4 °C 20.1 °C 19.5 °C 0 cm 0 min 0 W/m²
02:12 14.3 °C 8.7 °C 69 % 6 km/h (11 km/h) 0 mm0 mm 20.9 °C 21.4 °C 20.1 °C 19.5 °C 0 cm 0 min 0 W/m²
02:06 14.5 °C 8.7 °C 68 % 6 km/h (10 km/h) 0 mm0 mm 20.9 °C 21.4 °C 20.1 °C 19.5 °C 0 cm 0 min 0 W/m²
02:00 14.7 °C 8.6 °C 67 % 7 km/h (12 km/h) 0 mm0 mm 20.9 °C 21.4 °C 20.1 °C 19.5 °C 0 cm 0 min 0 W/m²
01:54 15 °C 8.7 °C 66 % 8 km/h (12 km/h) 0 mm0 mm 21 °C 21.4 °C 20 °C 19.5 °C 0 min 0 W/m²
01:48 15 °C 8.7 °C 66 % 8 km/h (10 km/h) 0 mm0 mm 21.1 °C 21.5 °C 20.1 °C 19.5 °C 0 min 0 W/m²
01:42 15 °C 8.9 °C 67 % 8 km/h (10 km/h) 0 mm0 mm 21.1 °C 21.5 °C 20 °C 19.5 °C 0 min 0 W/m²
01:36 14.9 °C 9.3 °C 69 % 6 km/h (9 km/h) 0 mm0 mm 21.1 °C 21.5 °C 20 °C 19.5 °C 0 min 0 W/m²
01:30 14.9 °C 9.3 °C 69 % 5 km/h (9 km/h) 0 mm0 mm 21.2 °C 21.5 °C 20 °C 19.5 °C 0 min 0 W/m²
01:24 15.1 °C 9.2 °C 68 % 6 km/h (9 km/h) 0 mm0 mm 21.2 °C 21.5 °C 20 °C 19.5 °C 0 min 0 W/m²
01:18 15.3 °C 9.2 °C 67 % 6 km/h (9 km/h) 0 mm0 mm 21.2 °C 21.5 °C 20 °C 19.5 °C 0 min 0 W/m²
01:12 15.4 °C 9.3 °C 67 % 6 km/h (9 km/h) 0 mm0 mm 21.3 °C 21.5 °C 20 °C 19.5 °C 0 min 0 W/m²
01:06 15.4 °C 9.3 °C 67 % 5 km/h (9 km/h) 0 mm0 mm 21.3 °C 21.5 °C 20 °C 19.5 °C 0 min 0 W/m²
01:00 15.5 °C 9.2 °C 66 % 4 km/h (9 km/h) 0 mm0 mm 21.3 °C 21.6 °C 20 °C 19.5 °C 0 min 0 W/m²
00:54 15.4 °C 9.1 °C 66 % 5 km/h (10 km/h) 0 mm0 mm 21.4 °C 21.6 °C 20 °C 19.5 °C 0 min 0 W/m²
00:48 15.6 °C 9 °C 65 % 9 km/h (13 km/h) 0 mm0 mm 21.4 °C 21.6 °C 20 °C 19.5 °C 0 min 0 W/m²
00:42 15.7 °C 8.7 °C 63 % 10 km/h (14 km/h) 0 mm0 mm 21.4 °C 21.6 °C 20 °C 19.5 °C 0 min 0 W/m²
00:36 16.2 °C 8.7 °C 61 % 11 km/h (16 km/h) 0 mm0 mm 21.5 °C 21.6 °C 20 °C 19.5 °C 0 min 0 W/m²
00:30 16.2 °C 8.7 °C 61 % 11 km/h (16 km/h) 0 mm0 mm 21.5 °C 21.6 °C 20 °C 19.5 °C 0 min 0 W/m²
00:24 16.4 °C 8.6 °C 60 % 10 km/h (15 km/h) 0 mm0 mm 21.6 °C 21.6 °C 20 °C 19.5 °C 0 min 0 W/m²
00:18 16.4 °C 8.6 °C 60 % 9 km/h (12 km/h) 0 mm0 mm 21.6 °C 21.6 °C 20 °C 19.5 °C 0 min 0 W/m²
00:12 16.1 °C 8.8 °C 62 % 7 km/h (12 km/h) 0 mm0 mm 21.6 °C 21.6 °C 20 °C 19.5 °C 0 min 0 W/m²
00:06 16.5 °C 9.2 °C 62 % 6 km/h (12 km/h) 0 mm0 mm 21.7 °C 21.6 °C 20 °C 19.5 °C 0 min 0 W/m²
00:00 17.2 °C 8.9 °C 58 % 9 km/h (12 km/h) 0 mm0 mm 21.7 °C 21.7 °C 20 °C 19.5 °C 0 min 0 W/m²

Données via Météo-France

Relevés météo à Embrun

Cette page rassemble les observations de la station de Embrun : température, humidité, vent, précipitations et pression atmosphérique. Les graphiques facilitent le suivi de la journée, tandis que le tableau donne accès aux mesures horaires et infra-horaires disponibles.

Pour replacer ces mesures dans leur contexte, consultez la climatologie de Embrun ainsi que ses normales et records. Retrouvez aussi la carte des observations météo en temps réel.